Time;durP1;ratioP1;P1;durP2;ratioP2;P2;SDS_P1;SDS_P2;PMS_P1;PMS_P2;Temp;Humidity;BMP_temperature;BMP_pressure;BME280_temperature;BME280_humidity;BME280_pressure;Samples;Min_cycle;Max_cycle;Signal;HPM_P1;HPM_P2
2023/07/12 00:01:02;;;;;;;9.23;3.55;;;19.10;99.90;;;;;;4989264;28;20034;-81
2023/07/12 00:03:28;;;;;;;8.20;3.40;;;19.10;99.90;;;;;;4990788;28;20076;-81
2023/07/12 00:05:54;;;;;;;10.10;3.50;;;19.10;99.90;;;;;;4989045;28;20209;-81
2023/07/12 00:08:28;;;;;;;7.28;3.40;;;19.10;99.90;;;;;;4991976;28;20120;-81
2023/07/12 00:10:56;;;;;;;8.82;4.50;;;19.10;99.90;;;;;;4990871;28;20030;-81
2023/07/12 00:13:25;;;;;;;5.53;3.25;;;19.10;99.90;;;;;;4991742;28;20042;-81
2023/07/12 00:15:52;;;;;;;12.10;3.63;;;19.10;99.90;;;;;;4988658;28;20035;-81
2023/07/12 00:18:20;;;;;;;10.75;3.70;;;19.10;99.90;;;;;;4985151;28;20035;-81
2023/07/12 00:20:48;;;;;;;8.45;3.50;;;19.10;99.90;;;;;;4987362;28;20098;-81
2023/07/12 00:23:15;;;;;;;9.52;4.10;;;19.10;99.90;;;;;;4988031;28;20034;-81
2023/07/12 00:25:42;;;;;;;11.15;4.05;;;19.10;99.90;;;;;;4990128;28;20035;-81
2023/07/12 00:28:24;;;;;;;11.43;3.65;;;19.10;99.90;;;;;;4992205;28;20058;-81
2023/07/12 00:30:51;;;;;;;11.10;4.22;;;19.10;99.90;;;;;;4993902;28;20045;-81
2023/07/12 00:33:18;;;;;;;10.07;3.72;;;19.10;99.90;;;;;;4994093;28;20483;-81
2023/07/12 00:35:44;;;;;;;9.20;4.13;;;19.10;99.90;;;;;;4992942;28;20027;-81
2023/07/12 00:38:21;;;;;;;10.32;4.43;;;19.10;99.90;;;;;;4992395;28;20404;-81
2023/07/12 00:41:14;;;;;;;9.80;3.95;;;19.10;99.90;;;;;;4992669;28;20053;-81
2023/07/12 00:44:08;;;;;;;7.03;4.00;;;19.10;99.90;;;;;;4993780;28;20057;-81
2023/07/12 00:46:47;;;;;;;10.82;4.20;;;19.10;99.90;;;;;;4992749;28;20045;-81
2023/07/12 00:49:13;;;;;;;8.93;3.42;;;19.10;99.90;;;;;;4993359;28;20038;-81
2023/07/12 00:52:06;;;;;;;8.75;4.05;;;19.10;99.90;;;;;;4992852;28;20053;-81
2023/07/12 00:54:50;;;;;;;9.77;3.83;;;19.00;99.90;;;;;;4993083;28;21340;-82
2023/07/12 00:57:16;;;;;;;6.57;3.33;;;19.00;99.90;;;;;;4992417;28;20576;-82
2023/07/12 00:59:43;;;;;;;7.72;3.70;;;19.00;99.90;;;;;;5009335;28;20122;-82
2023/07/12 01:02:08;;;;;;;10.38;4.18;;;19.00;99.90;;;;;;4993959;28;20037;-81
2023/07/12 01:04:42;;;;;;;11.77;3.67;;;19.00;99.90;;;;;;4993593;28;20030;-81
2023/07/12 01:07:09;;;;;;;10.77;4.38;;;19.00;99.90;;;;;;4992467;28;20034;-82
2023/07/12 01:09:34;;;;;;;9.43;4.22;;;19.00;99.90;;;;;;4994823;28;20037;-82
2023/07/12 01:12:01;;;;;;;7.88;3.95;;;18.90;99.90;;;;;;4993150;28;20507;-81
2023/07/12 01:14:27;;;;;;;10.10;4.35;;;18.90;99.90;;;;;;4994060;28;20107;-82
2023/07/12 01:17:02;;;;;;;10.73;4.30;;;18.90;99.90;;;;;;4993176;28;20026;-81
2023/07/12 01:19:29;;;;;;;11.52;4.22;;;19.00;99.90;;;;;;4996057;28;20038;-81
2023/07/12 01:21:56;;;;;;;8.15;3.80;;;18.90;99.90;;;;;;4993240;28;20026;-81
2023/07/12 01:24:23;;;;;;;11.02;4.00;;;18.90;99.90;;;;;;4993163;28;20080;-81
2023/07/12 01:26:51;;;;;;;7.20;3.50;;;18.90;99.90;;;;;;4993534;28;20026;-81
2023/07/12 01:29:16;;;;;;;6.78;4.00;;;18.90;99.90;;;;;;4994428;28;20061;-81
2023/07/12 01:31:44;;;;;;;10.32;4.07;;;19.00;99.90;;;;;;4998519;28;20049;-81
2023/07/12 01:34:10;;;;;;;8.27;3.50;;;19.00;99.90;;;;;;4992674;28;20117;-81
2023/07/12 01:36:37;;;;;;;9.18;3.80;;;19.00;99.90;;;;;;4993071;28;20760;-81
2023/07/12 01:39:05;;;;;;;8.63;3.85;;;19.00;99.90;;;;;;4994169;28;20491;-81
2023/07/12 01:41:32;;;;;;;7.82;3.42;;;19.00;99.90;;;;;;4994097;28;21449;-81
2023/07/12 01:43:58;;;;;;;7.13;3.42;;;19.00;99.90;;;;;;4993698;28;20039;-81
2023/07/12 01:46:24;;;;;;;10.57;3.90;;;19.00;99.90;;;;;;4993567;28;20034;-81
2023/07/12 01:48:49;;;;;;;10.27;3.53;;;19.00;99.90;;;;;;4992716;28;20034;-81
2023/07/12 01:51:17;;;;;;;7.38;3.45;;;19.00;99.90;;;;;;4992609;28;21359;-81
2023/07/12 01:53:42;;;;;;;9.48;4.30;;;19.00;99.90;;;;;;4994644;28;20033;-81
2023/07/12 01:56:09;;;;;;;8.13;4.00;;;19.00;99.90;;;;;;4993321;28;20026;-81
2023/07/12 01:58:35;;;;;;;7.55;4.07;;;19.00;99.90;;;;;;4993898;28;20061;-82
2023/07/12 02:01:00;;;;;;;9.77;3.88;;;18.90;99.90;;;;;;4993395;28;20061;-81
2023/07/12 02:03:27;;;;;;;6.65;3.17;;;18.90;99.90;;;;;;4993945;28;20041;-81
2023/07/12 02:05:53;;;;;;;9.18;3.85;;;18.90;99.90;;;;;;4993613;28;20026;-82
2023/07/12 02:08:19;;;;;;;6.25;3.40;;;18.90;99.90;;;;;;4993501;28;20038;-81
2023/07/12 02:10:46;;;;;;;7.78;4.22;;;18.80;99.90;;;;;;4993124;28;20050;-81
2023/07/12 02:13:12;;;;;;;7.75;3.42;;;18.80;99.90;;;;;;4993149;28;20029;-81
2023/07/12 02:15:37;;;;;;;7.07;3.42;;;18.80;99.90;;;;;;4990643;28;20085;-81
2023/07/12 02:18:03;;;;;;;10.63;3.75;;;18.80;99.90;;;;;;4991806;28;20026;-82
2023/07/12 02:20:29;;;;;;;6.15;3.25;;;18.80;99.90;;;;;;4991556;28;20040;-81
2023/07/12 02:22:54;;;;;;;5.15;3.15;;;18.80;99.90;;;;;;4992653;28;20026;-81
2023/07/12 02:25:20;;;;;;;8.23;3.80;;;18.80;99.90;;;;;;4991778;28;20400;-81
2023/07/12 02:27:47;;;;;;;6.18;3.15;;;18.80;99.90;;;;;;4992334;28;20034;-81
2023/07/12 02:30:16;;;;;;;7.60;3.70;;;18.70;99.90;;;;;;4992531;28;20108;-81
2023/07/12 02:32:42;;;;;;;11.98;4.00;;;18.70;99.90;;;;;;4992849;28;20046;-81
2023/07/12 02:35:08;;;;;;;6.97;3.42;;;18.70;99.90;;;;;;4990489;28;20103;-81
2023/07/12 02:37:34;;;;;;;9.77;4.35;;;18.70;99.90;;;;;;4990941;28;20141;-81
2023/07/12 02:40:00;;;;;;;6.93;3.38;;;18.70;99.90;;;;;;4990723;28;20527;-81
2023/07/12 02:42:25;;;;;;;8.38;3.83;;;18.70;99.90;;;;;;4989834;28;20049;-81
2023/07/12 02:44:51;;;;;;;7.95;3.80;;;18.70;99.90;;;;;;4991274;28;20072;-81
2023/07/12 02:47:17;;;;;;;6.60;3.20;;;18.60;99.90;;;;;;4989144;28;20398;-81
2023/07/12 02:49:42;;;;;;;7.25;3.65;;;18.60;99.90;;;;;;4990408;28;20085;-81
2023/07/12 02:52:09;;;;;;;9.18;3.33;;;18.60;99.90;;;;;;4990894;28;20125;-81
2023/07/12 02:54:35;;;;;;;7.97;3.63;;;18.50;99.90;;;;;;4991443;28;20137;-82
2023/07/12 02:57:02;;;;;;;7.45;3.38;;;18.50;99.90;;;;;;4990062;28;20657;-82
2023/07/12 02:59:27;;;;;;;7.13;3.40;;;18.50;99.90;;;;;;4990355;28;20034;-81
2023/07/12 03:01:53;;;;;;;6.32;3.17;;;18.50;99.90;;;;;;4990609;28;20089;-81
2023/07/12 03:04:20;;;;;;;5.47;3.28;;;18.50;99.90;;;;;;4989650;28;20045;-81
2023/07/12 03:06:46;;;;;;;8.18;3.17;;;18.50;99.90;;;;;;4989236;28;20034;-81
2023/07/12 03:09:12;;;;;;;10.10;3.33;;;18.50;99.90;;;;;;4990559;28;20054;-82
2023/07/12 03:11:37;;;;;;;7.30;3.80;;;18.50;99.90;;;;;;4990015;28;20128;-81
2023/07/12 03:14:06;;;;;;;7.70;3.60;;;18.50;99.90;;;;;;4988876;28;20041;-82
2023/07/12 03:16:32;;;;;;;9.45;4.07;;;18.50;99.90;;;;;;4986513;28;20037;-82
2023/07/12 03:18:59;;;;;;;6.05;3.58;;;18.50;99.90;;;;;;4989109;28;20400;-81
2023/07/12 03:21:25;;;;;;;7.95;4.07;;;18.50;99.90;;;;;;4990755;28;20033;-82
2023/07/12 03:23:51;;;;;;;8.65;3.83;;;18.50;99.90;;;;;;4993391;28;20031;-81
2023/07/12 03:26:16;;;;;;;7.07;3.25;;;18.40;99.90;;;;;;4991954;28;20041;-82
2023/07/12 03:28:42;;;;;;;7.50;3.40;;;18.50;99.90;;;;;;4992724;28;20048;-82
2023/07/12 03:31:11;;;;;;;9.25;3.80;;;18.50;99.90;;;;;;4993361;28;20076;-82
2023/07/12 03:33:37;;;;;;;8.10;3.80;;;18.50;99.90;;;;;;4992150;28;20049;-82
2023/07/12 03:36:03;;;;;;;11.00;3.60;;;18.50;99.90;;;;;;4992355;28;20072;-82
2023/07/12 03:38:30;;;;;;;9.88;4.07;;;18.40;99.90;;;;;;4992200;28;20029;-82
2023/07/12 03:40:58;;;;;;;7.78;3.45;;;18.40;99.90;;;;;;4992754;28;20041;-82
2023/07/12 03:43:24;;;;;;;7.63;4.03;;;18.40;99.90;;;;;;4991623;28;20042;-82
2023/07/12 03:45:51;;;;;;;6.97;4.07;;;18.40;99.90;;;;;;4991455;28;20023;-82
2023/07/12 03:48:16;;;;;;;11.75;3.60;;;18.40;99.90;;;;;;4992766;28;20041;-81
2023/07/12 03:50:42;;;;;;;9.27;4.10;;;18.40;99.90;;;;;;4993512;28;20685;-82
2023/07/12 03:53:08;;;;;;;8.43;3.88;;;18.40;99.90;;;;;;4992983;28;20053;-82
2023/07/12 03:55:39;;;;;;;9.93;4.03;;;18.40;99.90;;;;;;4992204;28;20019;-82
2023/07/12 03:58:05;;;;;;;10.40;4.30;;;18.40;99.90;;;;;;4992570;28;20018;-83
2023/07/12 04:00:31;;;;;;;8.80;4.30;;;18.30;99.90;;;;;;4993885;28;20037;-82
2023/07/12 04:02:56;;;;;;;8.27;4.03;;;18.30;99.90;;;;;;4996771;28;20026;-82
2023/07/12 04:05:22;;;;;;;7.82;3.92;;;18.30;99.90;;;;;;4996898;28;20026;-82
2023/07/12 04:07:47;;;;;;;10.48;3.88;;;18.30;99.90;;;;;;4992628;28;20459;-76
2023/07/12 04:10:13;;;;;;;8.75;4.00;;;18.40;99.90;;;;;;4991521;28;20033;-77
2023/07/12 04:12:39;;;;;;;11.82;4.30;;;18.40;99.90;;;;;;4990397;28;20030;-76
2023/07/12 04:15:05;;;;;;;8.25;3.97;;;18.40;99.90;;;;;;4989220;28;20109;-76
2023/07/12 04:17:31;;;;;;;7.68;3.70;;;18.40;99.90;;;;;;4989401;28;20026;-76
2023/07/12 04:19:57;;;;;;;8.40;4.43;;;18.40;99.90;;;;;;4988267;28;20370;-76
2023/07/12 04:22:23;;;;;;;7.60;4.35;;;18.40;99.90;;;;;;4989262;28;20523;-75
2023/07/12 04:24:50;;;;;;;9.45;4.03;;;18.50;99.90;;;;;;4989238;28;20042;-76
2023/07/12 04:27:15;;;;;;;6.43;3.97;;;18.50;99.90;;;;;;4988464;28;20022;-76
2023/07/12 04:29:42;;;;;;;6.70;3.83;;;18.50;99.90;;;;;;4989072;28;20052;-76
2023/07/12 04:32:07;;;;;;;9.10;4.05;;;18.50;99.90;;;;;;4989508;28;20038;-75
2023/07/12 04:34:33;;;;;;;6.75;3.55;;;18.60;99.90;;;;;;4989580;28;20022;-76
2023/07/12 04:36:59;;;;;;;12.38;3.97;;;18.50;99.90;;;;;;4987984;28;20101;-76
2023/07/12 04:39:25;;;;;;;8.75;3.75;;;18.60;99.90;;;;;;4990606;28;20031;-76
2023/07/12 04:41:50;;;;;;;6.05;3.80;;;18.60;99.90;;;;;;4988427;28;20033;-76
2023/07/12 04:44:16;;;;;;;11.25;4.43;;;18.60;99.90;;;;;;4989032;28;20026;-76
2023/07/12 04:46:41;;;;;;;6.90;4.13;;;18.70;99.90;;;;;;4988527;28;20025;-76
2023/07/12 04:49:08;;;;;;;6.18;3.78;;;18.70;99.90;;;;;;4988785;28;20066;-76
2023/07/12 04:51:34;;;;;;;7.95;3.53;;;18.70;99.90;;;;;;4989390;28;20031;-77
2023/07/12 04:54:00;;;;;;;12.32;4.15;;;18.80;99.90;;;;;;4987846;28;20407;-76
2023/07/12 04:56:25;;;;;;;7.97;3.95;;;18.80;99.90;;;;;;4988395;28;20169;-76
2023/07/12 04:58:51;;;;;;;8.32;3.53;;;18.80;99.90;;;;;;4987690;28;21104;-76
2023/07/12 05:01:18;;;;;;;10.73;4.65;;;18.90;99.90;;;;;;4982459;28;20034;-76
2023/07/12 05:03:44;;;;;;;9.57;4.20;;;18.90;99.90;;;;;;4985297;28;20031;-76
2023/07/12 05:06:09;;;;;;;8.30;4.28;;;19.00;99.90;;;;;;4986627;28;20030;-76
2023/07/12 05:08:35;;;;;;;9.10;3.97;;;19.00;99.90;;;;;;4988790;28;20035;-77
2023/07/12 05:11:01;;;;;;;8.30;4.90;;;19.00;99.90;;;;;;4986617;28;20511;-76
2023/07/12 05:13:27;;;;;;;8.02;3.85;;;19.10;99.90;;;;;;4976844;28;20022;-75
2023/07/12 05:15:53;;;;;;;11.00;4.28;;;19.20;99.90;;;;;;4980875;28;21494;-76
2023/07/12 05:18:20;;;;;;;6.28;3.65;;;19.20;99.90;;;;;;4985822;28;20022;-76
2023/07/12 05:20:45;;;;;;;9.13;4.47;;;19.30;99.90;;;;;;4987233;28;20078;-76
2023/07/12 05:23:11;;;;;;;9.52;4.10;;;19.50;99.90;;;;;;4985679;28;20101;-76
2023/07/12 05:25:37;;;;;;;9.88;4.22;;;19.60;99.90;;;;;;4986442;28;20035;-76
2023/07/12 05:28:03;;;;;;;9.68;4.43;;;19.60;99.90;;;;;;4984566;28;20030;-77
2023/07/12 05:30:31;;;;;;;10.32;4.15;;;19.70;99.90;;;;;;4986275;28;20466;-76
2023/07/12 05:32:57;;;;;;;12.57;4.25;;;19.80;99.90;;;;;;4985455;28;20121;-77
2023/07/12 05:35:22;;;;;;;12.55;4.22;;;19.80;99.90;;;;;;4985510;28;20018;-76
2023/07/12 05:37:49;;;;;;;11.70;4.57;;;19.90;99.90;;;;;;4985166;28;20449;-77
2023/07/12 05:40:15;;;;;;;8.90;3.75;;;20.00;99.90;;;;;;4985474;28;20890;-77
2023/07/12 05:42:41;;;;;;;9.50;5.18;;;20.00;99.90;;;;;;4986524;28;20022;-76
2023/07/12 05:45:09;;;;;;;7.65;4.43;;;20.00;99.90;;;;;;4987950;28;20069;-77
2023/07/12 05:47:35;;;;;;;8.52;3.97;;;20.00;99.90;;;;;;4985657;28;20530;-77
2023/07/12 05:50:01;;;;;;;8.48;4.20;;;20.10;99.90;;;;;;4986405;28;20058;-77
2023/07/12 05:52:27;;;;;;;5.63;3.78;;;20.10;99.90;;;;;;4987233;28;20040;-77
2023/07/12 05:54:54;;;;;;;10.75;4.00;;;20.10;99.90;;;;;;4985294;28;20110;-77
2023/07/12 05:57:20;;;;;;;8.70;4.15;;;20.10;99.90;;;;;;4982530;28;20034;-77
2023/07/12 05:59:45;;;;;;;10.18;4.03;;;20.10;99.90;;;;;;4976719;28;20906;-75
2023/07/12 06:02:14;;;;;;;8.43;4.85;;;20.10;99.90;;;;;;4975234;28;20456;-76
2023/07/12 06:04:39;;;;;;;8.48;3.88;;;20.10;99.90;;;;;;4975787;28;20064;-76
2023/07/12 06:07:05;;;;;;;10.98;4.03;;;20.10;99.90;;;;;;4975582;28;20832;-77
2023/07/12 06:09:31;;;;;;;9.52;4.10;;;20.00;99.90;;;;;;4977461;28;20919;-76
2023/07/12 06:11:56;;;;;;;9.05;4.68;;;20.00;99.90;;;;;;4973354;28;20132;-76
2023/07/12 06:14:22;;;;;;;12.23;5.25;;;20.00;99.90;;;;;;4975557;28;20485;-76
2023/07/12 06:16:47;;;;;;;9.27;4.18;;;20.00;99.90;;;;;;4976670;28;20575;-76
2023/07/12 06:19:13;;;;;;;12.10;4.50;;;19.90;99.90;;;;;;4973338;28;20077;-77
2023/07/12 06:21:39;;;;;;;13.32;4.32;;;19.90;99.90;;;;;;4977698;28;20042;-76
2023/07/12 06:24:06;;;;;;;16.00;4.90;;;19.80;99.90;;;;;;4977938;28;20041;-76
2023/07/12 06:26:32;;;;;;;8.93;3.97;;;19.80;99.90;;;;;;4975296;28;20037;-76
2023/07/12 06:28:59;;;;;;;8.75;3.97;;;19.80;99.90;;;;;;4975902;28;20073;-76
2023/07/12 06:31:25;;;;;;;6.22;3.80;;;19.70;99.90;;;;;;4978138;28;20110;-76
2023/07/12 06:33:50;;;;;;;8.40;3.30;;;19.70;99.90;;;;;;4980391;28;20025;-81
2023/07/12 06:36:16;;;;;;;7.93;3.47;;;19.70;99.90;;;;;;4978898;28;20117;-82
2023/07/12 06:38:42;;;;;;;11.35;3.60;;;19.70;99.90;;;;;;4976569;28;20034;-81
2023/07/12 06:41:08;;;;;;;11.70;3.58;;;19.70;99.90;;;;;;4980145;28;20041;-81
2023/07/12 06:43:33;;;;;;;13.57;3.42;;;19.60;99.90;;;;;;4978561;28;20038;-81
2023/07/12 06:46:00;;;;;;;9.10;3.05;;;19.60;99.90;;;;;;4977834;28;21025;-82
2023/07/12 06:48:26;;;;;;;8.60;3.58;;;19.50;99.90;;;;;;4977548;28;20048;-81
2023/07/12 06:50:54;;;;;;;7.53;3.20;;;19.50;99.90;;;;;;4977368;28;20027;-81
2023/07/12 06:53:19;;;;;;;9.02;3.17;;;19.50;99.90;;;;;;4976433;28;20888;-81
2023/07/12 06:55:45;;;;;;;9.68;2.90;;;19.40;99.90;;;;;;4975593;28;20026;-80
2023/07/12 06:58:11;;;;;;;7.97;3.30;;;19.30;99.90;;;;;;4978147;28;20035;-81
2023/07/12 07:00:41;;;;;;;7.32;2.88;;;19.30;99.90;;;;;;4978035;28;20030;-82
2023/07/12 07:03:09;;;;;;;6.47;2.97;;;19.30;99.90;;;;;;4980243;28;20084;-79
2023/07/12 07:05:36;;;;;;;12.45;2.90;;;19.30;99.90;;;;;;4978506;28;20034;-79
2023/07/12 07:08:03;;;;;;;6.90;2.53;;;19.30;99.90;;;;;;4978077;28;20034;-78
2023/07/12 07:10:29;;;;;;;5.80;2.45;;;19.20;99.90;;;;;;4980433;28;20049;-83
2023/07/12 07:12:54;;;;;;;7.53;2.17;;;19.20;99.90;;;;;;4978255;28;20129;-82
2023/07/12 07:15:20;;;;;;;7.68;2.55;;;19.20;99.90;;;;;;4996085;28;20114;-79
2023/07/12 07:17:45;;;;;;;4.50;2.15;;;19.20;99.90;;;;;;4977056;28;20377;-79
2023/07/12 07:20:11;;;;;;;7.25;2.42;;;19.30;99.90;;;;;;4979670;28;20053;-79
2023/07/12 07:22:37;;;;;;;5.90;2.45;;;19.30;99.90;;;;;;4978891;28;20039;-79
2023/07/12 07:25:02;;;;;;;7.20;2.10;;;19.40;99.90;;;;;;4980370;28;20042;-80
2023/07/12 07:27:29;;;;;;;6.15;2.33;;;19.50;99.90;;;;;;4977388;28;20084;-79
2023/07/12 07:29:55;;;;;;;9.82;2.70;;;19.50;99.90;;;;;;4977361;28;20046;-80
2023/07/12 07:32:21;;;;;;;5.43;2.42;;;19.60;99.90;;;;;;4978846;28;20033;-80
2023/07/12 07:34:46;;;;;;;4.70;2.00;;;19.60;99.90;;;;;;4980786;28;20022;-79
2023/07/12 07:37:12;;;;;;;4.72;1.83;;;19.60;99.90;;;;;;4978651;28;20113;-79
2023/07/12 07:39:37;;;;;;;5.65;1.80;;;19.70;99.90;;;;;;4979635;28;20085;-80
2023/07/12 07:42:03;;;;;;;5.85;2.47;;;19.70;99.90;;;;;;4981284;28;20029;-79
2023/07/12 07:44:28;;;;;;;3.80;2.13;;;19.70;99.90;;;;;;4978655;28;20732;-79
2023/07/12 07:46:54;;;;;;;6.40;2.10;;;19.80;99.90;;;;;;4976229;28;20034;-79
2023/07/12 07:49:20;;;;;;;4.63;1.80;;;19.90;99.90;;;;;;4978767;28;20045;-79
2023/07/12 07:51:45;;;;;;;3.85;1.60;;;19.90;99.90;;;;;;4980263;28;20036;-79
2023/07/12 07:54:11;;;;;;;3.45;1.67;;;20.00;99.90;;;;;;4977802;28;21601;-79
2023/07/12 07:56:36;;;;;;;3.88;2.08;;;20.10;99.90;;;;;;4977658;28;20132;-80
2023/07/12 07:59:02;;;;;;;4.22;1.77;;;20.20;99.90;;;;;;4977110;28;20120;-80
2023/07/12 08:01:27;;;;;;;6.25;2.05;;;20.30;99.90;;;;;;4979742;28;20408;-80
2023/07/12 08:03:53;;;;;;;4.40;1.92;;;20.50;99.90;;;;;;4979230;28;20086;-80
2023/07/12 08:06:18;;;;;;;8.05;1.80;;;20.60;99.90;;;;;;4977705;28;20056;-80
2023/07/12 08:08:44;;;;;;;3.05;1.70;;;20.80;99.90;;;;;;4974753;28;20077;-79
2023/07/12 08:11:09;;;;;;;4.70;1.80;;;20.90;99.90;;;;;;4978255;28;21122;-80
2023/07/12 08:13:35;;;;;;;6.38;2.20;;;21.10;99.90;;;;;;4980232;28;20034;-80
2023/07/12 08:16:01;;;;;;;3.58;2.00;;;21.30;99.90;;;;;;4976656;28;20037;-79
2023/07/12 08:18:27;;;;;;;5.65;2.20;;;21.40;99.90;;;;;;4977317;28;20810;-79
2023/07/12 08:20:54;;;;;;;4.55;1.98;;;21.50;99.90;;;;;;4976554;28;20038;-80
2023/07/12 08:23:20;;;;;;;4.55;1.70;;;21.60;99.90;;;;;;4975463;28;20148;-79
2023/07/12 08:25:48;;;;;;;4.95;1.70;;;21.60;99.90;;;;;;4975903;28;20033;-80
2023/07/12 08:28:14;;;;;;;5.25;1.77;;;21.70;99.90;;;;;;4975897;28;21080;-79
2023/07/12 08:30:39;;;;;;;3.55;1.80;;;21.80;99.90;;;;;;4976815;28;20030;-80
2023/07/12 08:33:05;;;;;;;5.90;1.60;;;21.90;99.90;;;;;;4980995;28;20145;-79
2023/07/12 08:35:30;;;;;;;6.65;2.00;;;22.00;99.90;;;;;;4980715;28;20026;-76
2023/07/12 08:37:57;;;;;;;4.20;1.70;;;22.10;99.90;;;;;;4980594;28;20027;-76
2023/07/12 08:40:23;;;;;;;7.07;1.90;;;22.20;99.90;;;;;;4963179;28;20488;-75
2023/07/12 08:42:48;;;;;;;3.97;1.35;;;22.30;99.90;;;;;;4955759;28;20593;-75
2023/07/12 08:45:25;;;;;;;5.97;2.05;;;22.40;99.90;;;;;;4954492;28;20030;-75
2023/07/12 08:47:54;;;;;;;5.15;1.80;;;22.50;99.90;;;;;;4957261;28;20559;-76
2023/07/12 08:50:21;;;;;;;6.28;1.90;;;22.60;99.90;;;;;;4960439;28;20034;-76
2023/07/12 08:52:46;;;;;;;7.10;2.00;;;22.60;99.90;;;;;;4961146;28;20026;-76
2023/07/12 08:55:18;;;;;;;5.55;1.83;;;22.80;99.90;;;;;;4966002;28;20745;-76
2023/07/12 08:57:50;;;;;;;5.10;2.00;;;22.80;99.90;;;;;;4978728;28;20034;-76
2023/07/12 09:00:21;;;;;;;4.72;2.08;;;22.90;99.90;;;;;;4976250;28;20042;-76
2023/07/12 09:02:46;;;;;;;5.85;2.00;;;23.00;99.90;;;;;;4978008;28;20058;-76
2023/07/12 09:05:16;;;;;;;7.15;1.70;;;23.10;99.90;;;;;;4975266;28;20412;-76
2023/07/12 09:08:08;;;;;;;3.83;2.15;;;23.10;99.90;;;;;;4978692;28;20034;-75
2023/07/12 09:10:46;;;;;;;4.57;1.67;;;23.20;99.90;;;;;;4978422;28;20036;-75
2023/07/12 09:13:14;;;;;;;5.13;1.70;;;23.30;99.90;;;;;;4978879;28;20053;-76
2023/07/12 09:15:43;;;;;;;5.72;1.90;;;23.40;99.90;;;;;;4975955;28;20393;-75
2023/07/12 09:18:20;;;;;;;5.10;1.75;;;23.50;99.90;;;;;;4976329;28;20365;-75
2023/07/12 09:20:50;;;;;;;4.68;1.80;;;23.60;99.90;;;;;;4977705;28;20038;-76
2023/07/12 09:23:16;;;;;;;3.55;1.67;;;23.70;99.90;;;;;;4978948;28;20038;-76
2023/07/12 09:25:47;;;;;;;3.33;1.75;;;23.90;99.90;;;;;;4973533;28;20034;-75
2023/07/12 09:28:13;;;;;;;3.72;1.77;;;24.10;99.90;;;;;;4976827;28;20133;-75
2023/07/12 09:30:39;;;;;;;3.97;2.10;;;24.20;99.90;;;;;;4977855;28;20029;-75
2023/07/12 09:33:05;;;;;;;6.55;2.03;;;24.40;99.90;;;;;;4978126;28;20022;-76
2023/07/12 09:35:40;;;;;;;4.38;1.80;;;24.50;99.90;;;;;;4974865;28;20061;-76
2023/07/12 09:38:12;;;;;;;3.22;1.95;;;24.80;99.90;;;;;;4976631;28;20034;-75
2023/07/12 09:40:43;;;;;;;4.10;1.92;;;25.10;99.90;;;;;;4979175;28;20032;-75
2023/07/12 09:43:19;;;;;;;6.00;2.08;;;25.30;99.90;;;;;;4978900;28;20034;-76
2023/07/12 09:45:49;;;;;;;4.15;2.00;;;25.50;99.90;;;;;;4973396;28;20077;-76
2023/07/12 09:48:33;;;;;;;3.45;1.73;;;25.60;99.90;;;;;;4976276;28;20037;-76
2023/07/12 09:51:26;;;;;;;4.78;1.98;;;25.80;99.90;;;;;;4978380;28;20734;-76
2023/07/12 09:53:55;;;;;;;5.20;1.90;;;26.00;99.90;;;;;;4976640;28;20485;-75
2023/07/12 09:56:42;;;;;;;4.05;2.03;;;26.10;99.90;;;;;;4973093;28;20096;-76
2023/07/12 09:59:38;;;;;;;4.85;2.15;;;26.40;99.90;;;;;;4977365;28;21407;-75
2023/07/12 10:02:39;;;;;;;6.10;2.40;;;26.50;99.90;;;;;;4975207;28;20453;-76
2023/07/12 10:05:12;;;;;;;6.25;2.10;;;26.50;99.90;;;;;;4973726;28;20088;-75
2023/07/12 10:07:54;;;;;;;4.93;2.33;;;26.50;99.90;;;;;;4975411;28;20045;-75
2023/07/12 10:10:34;;;;;;;4.53;1.90;;;26.50;99.90;;;;;;4978097;28;20043;-75
2023/07/12 10:13:19;;;;;;;5.50;2.08;;;26.80;99.90;;;;;;4977771;28;20038;-75
2023/07/12 10:15:45;;;;;;;4.28;1.85;;;26.90;99.90;;;;;;4984139;28;20056;-77
2023/07/12 10:18:21;;;;;;;4.93;1.90;;;27.10;99.90;;;;;;4984324;28;20077;-77
2023/07/12 10:20:48;;;;;;;3.78;1.88;;;27.40;99.90;;;;;;4982777;28;20030;-77
2023/07/12 10:23:15;;;;;;;5.05;2.40;;;27.40;99.90;;;;;;4985142;28;20827;-77
2023/07/12 10:25:46;;;;;;;6.97;1.92;;;27.50;99.90;;;;;;4984499;28;20042;-77
2023/07/12 10:28:13;;;;;;;4.45;1.67;;;27.50;99.90;;;;;;4986232;28;20042;-77
2023/07/12 10:30:40;;;;;;;5.40;2.22;;;27.80;99.90;;;;;;4985110;28;20066;-76
2023/07/12 10:33:29;;;;;;;5.65;2.00;;;28.10;99.90;;;;;;4984888;28;20497;-77
2023/07/12 10:36:01;;;;;;;4.63;1.83;;;28.20;99.90;;;;;;4984418;28;20033;-77
2023/07/12 10:38:28;;;;;;;4.10;2.00;;;28.40;99.90;;;;;;4986206;28;20152;-77
2023/07/12 10:41:18;;;;;;;4.45;2.10;;;28.60;99.90;;;;;;4985489;28;20030;-80
2023/07/12 10:43:47;;;;;;;4.60;1.90;;;28.70;99.90;;;;;;4986865;28;20096;-77
2023/07/12 10:46:36;;;;;;;6.47;2.40;;;28.70;99.90;;;;;;4982877;28;20499;-77
2023/07/12 10:49:13;;;;;;;10.00;2.90;;;28.80;99.90;;;;;;4979316;28;20038;-80
2023/07/12 10:51:41;;;;;;;4.88;2.55;;;28.90;99.90;;;;;;4981265;28;20106;-80
2023/07/12 10:54:32;;;;;;;6.63;2.47;;;29.10;99.90;;;;;;4980420;28;20033;-80
2023/07/12 10:57:22;;;;;;;5.63;2.08;;;29.50;99.90;;;;;;4980020;28;20034;-80
2023/07/12 10:59:47;;;;;;;4.78;2.08;;;29.60;99.90;;;;;;4976831;28;20137;-80
2023/07/12 11:02:25;;;;;;;4.55;2.30;;;29.80;99.90;;;;;;4979687;28;20041;-80
2023/07/12 11:04:51;;;;;;;3.72;1.92;;;29.90;99.90;;;;;;4978466;28;20030;-80
2023/07/12 11:07:16;;;;;;;8.23;2.17;;;30.00;99.90;;;;;;4978898;28;20140;-80
2023/07/12 11:09:42;;;;;;;5.05;2.20;;;30.00;99.90;;;;;;4976624;28;20152;-80
2023/07/12 11:12:08;;;;;;;4.63;2.35;;;30.20;99.90;;;;;;4979699;28;20500;-80
2023/07/12 11:14:37;;;;;;;7.35;2.55;;;30.40;99.90;;;;;;4979473;28;20033;-81
2023/07/12 11:17:11;;;;;;;5.30;2.30;;;30.30;99.90;;;;;;4978678;28;20508;-81
2023/07/12 11:19:45;;;;;;;6.80;2.38;;;30.30;99.90;;;;;;4978560;28;20031;-80
2023/07/12 11:22:19;;;;;;;6.18;2.42;;;30.20;99.90;;;;;;4979844;28;20480;-81
2023/07/12 11:24:45;;;;;;;5.50;2.70;;;30.30;99.90;;;;;;4977952;28;20576;-80
2023/07/12 11:27:51;;;;;;;4.85;2.40;;;30.50;99.90;;;;;;4978109;28;20046;-80
2023/07/12 11:30:23;;;;;;;7.32;2.65;;;30.70;99.90;;;;;;4977045;28;20093;-81
2023/07/12 11:32:59;;;;;;;9.13;2.88;;;31.00;99.90;;;;;;4979599;28;20058;-80
2023/07/12 11:35:52;;;;;;;8.93;3.50;;;31.30;99.90;;;;;;4979316;28;20151;-80
2023/07/12 11:38:23;;;;;;;7.63;3.05;;;31.40;99.90;;;;;;4981854;28;20088;-81
2023/07/12 11:40:52;;;;;;;9.82;3.70;;;31.50;99.90;;;;;;4977860;28;20066;-80
2023/07/12 11:43:18;;;;;;;8.13;3.30;;;31.40;99.90;;;;;;4978563;28;20064;-80
2023/07/12 11:45:44;;;;;;;10.00;3.85;;;31.10;99.90;;;;;;4977415;28;20727;-80
2023/07/12 11:48:13;;;;;;;6.47;3.25;;;31.10;99.90;;;;;;4978500;28;20039;-81
2023/07/12 11:50:39;;;;;;;11.70;3.42;;;31.20;99.90;;;;;;4975349;28;20038;-80
2023/07/12 11:53:05;;;;;;;7.78;3.00;;;31.20;99.90;;;;;;4979305;28;20153;-81
2023/07/12 11:55:34;;;;;;;7.85;3.00;;;31.20;99.90;;;;;;4979772;28;20031;-80
2023/07/12 11:58:00;;;;;;;9.20;3.70;;;30.80;99.90;;;;;;4977678;28;20176;-80
2023/07/12 12:00:28;;;;;;;12.07;3.55;;;30.60;99.90;;;;;;4977390;28;20034;-80
2023/07/12 12:02:58;;;;;;;5.90;3.10;;;30.30;99.90;;;;;;4985728;28;20045;-80
2023/07/12 12:05:31;;;;;;;6.57;3.50;;;30.10;99.90;;;;;;4984113;28;20373;-80
2023/07/12 12:07:59;;;;;;;8.80;3.67;;;29.90;99.90;;;;;;4984032;28;20408;-79
2023/07/12 12:10:27;;;;;;;9.55;3.92;;;29.80;99.90;;;;;;4980418;28;20100;-78
2023/07/12 12:12:54;;;;;;;10.00;3.80;;;29.80;99.90;;;;;;4983818;28;20073;-79
2023/07/12 12:15:25;;;;;;;7.57;3.30;;;29.90;99.90;;;;;;4983789;28;21010;-79
2023/07/12 12:17:53;;;;;;;8.75;3.92;;;29.90;99.90;;;;;;4982811;28;20057;-79
2023/07/12 12:20:25;;;;;;;9.90;4.10;;;29.90;99.90;;;;;;4980143;28;20128;-79
2023/07/12 12:23:14;;;;;;;8.75;3.85;;;29.80;99.90;;;;;;4983989;28;20035;-79
2023/07/12 12:25:48;;;;;;;10.80;3.75;;;29.70;99.90;;;;;;4985126;28;20073;-81
2023/07/12 12:28:20;;;;;;;;;;;30.00;99.90;;;;;;4987883;28;20035;-79
2023/07/12 12:30:57;;;;;;;7.15;4.15;;;30.20;99.90;;;;;;4987018;28;19965;-79
2023/07/12 12:33:26;;;;;;;11.65;4.15;;;30.80;99.90;;;;;;4989141;28;20066;-79
2023/07/12 12:36:01;;;;;;;11.57;4.38;;;31.20;99.90;;;;;;4985410;28;20026;-79
2023/07/12 12:38:31;;;;;;;10.73;3.70;;;31.30;99.90;;;;;;4986371;28;20037;-79
2023/07/12 12:41:01;;;;;;;8.63;3.60;;;31.40;99.90;;;;;;4986851;28;20779;-79
2023/07/12 12:43:26;;;;;;;9.32;3.65;;;31.40;99.90;;;;;;4986595;28;20474;-79
2023/07/12 12:45:54;;;;;;;10.77;4.30;;;31.20;99.90;;;;;;4986023;28;20034;-80
2023/07/12 12:48:19;;;;;;;8.65;3.70;;;31.00;99.90;;;;;;4982873;28;20034;-79
2023/07/12 12:50:45;;;;;;;10.27;4.00;;;30.90;99.90;;;;;;4983472;28;20523;-79
2023/07/12 12:53:12;;;;;;;10.57;4.30;;;30.90;99.90;;;;;;4983623;28;20058;-79